sensor_id;sensor_type;location;lat;lon;timestamp;pressure;altitude;pressure_sealevel;temperature;humidity
17785;BME280;9016;53.582;10.062;2023-06-14T00:00:04;101754.44;;;17.92;63.05
17785;BME280;9016;53.582;10.062;2023-06-14T00:02:34;101755.06;;;17.96;62.73
17785;BME280;9016;53.582;10.062;2023-06-14T00:05:04;101753.03;;;17.87;62.96
17785;BME280;9016;53.582;10.062;2023-06-14T00:07:36;101747.66;;;17.87;62.68
17785;BME280;9016;53.582;10.062;2023-06-14T00:10:06;101751.22;;;17.87;62.88
17785;BME280;9016;53.582;10.062;2023-06-14T00:12:34;101753.94;;;17.74;62.96
17785;BME280;9016;53.582;10.062;2023-06-14T00:15:03;101760.44;;;17.72;63.22
17785;BME280;9016;53.582;10.062;2023-06-14T00:17:31;101758.69;;;17.71;63.20
17785;BME280;9016;53.582;10.062;2023-06-14T00:20:04;101761.19;;;17.74;63.07
17785;BME280;9016;53.582;10.062;2023-06-14T00:22:34;101761.00;;;17.64;63.34
17785;BME280;9016;53.582;10.062;2023-06-14T00:25:04;101756.47;;;17.65;63.55
17785;BME280;9016;53.582;10.062;2023-06-14T00:27:49;101767.59;;;17.60;63.90
17785;BME280;9016;53.582;10.062;2023-06-14T00:30:17;101765.84;;;17.72;62.88
17785;BME280;9016;53.582;10.062;2023-06-14T00:32:46;101774.63;;;17.50;63.92
17785;BME280;9016;53.582;10.062;2023-06-14T00:35:16;101771.59;;;17.55;63.69
17785;BME280;9016;53.582;10.062;2023-06-14T00:37:44;101775.44;;;17.63;63.31
17785;BME280;9016;53.582;10.062;2023-06-14T00:40:12;101772.66;;;17.52;63.57
17785;BME280;9016;53.582;10.062;2023-06-14T00:42:40;101782.94;;;17.47;63.39
17785;BME280;9016;53.582;10.062;2023-06-14T00:45:10;101776.00;;;17.43;64.25
17785;BME280;9016;53.582;10.062;2023-06-14T00:47:38;101778.59;;;17.45;64.05
17785;BME280;9016;53.582;10.062;2023-06-14T00:50:09;101782.69;;;17.38;64.24
17785;BME280;9016;53.582;10.062;2023-06-14T00:52:39;101787.13;;;17.39;64.29
17785;BME280;9016;53.582;10.062;2023-06-14T00:55:08;101790.00;;;17.36;64.42
17785;BME280;9016;53.582;10.062;2023-06-14T00:57:37;101784.63;;;17.36;64.35
17785;BME280;9016;53.582;10.062;2023-06-14T01:00:07;101783.56;;;17.38;63.91
17785;BME280;9016;53.582;10.062;2023-06-14T01:02:37;101791.75;;;17.37;64.23
17785;BME280;9016;53.582;10.062;2023-06-14T01:05:06;101790.25;;;17.33;64.10
17785;BME280;9016;53.582;10.062;2023-06-14T01:07:49;101789.38;;;17.32;64.66
17785;BME280;9016;53.582;10.062;2023-06-14T01:10:32;101793.06;;;17.31;64.46
17785;BME280;9016;53.582;10.062;2023-06-14T01:13:07;101791.91;;;17.23;64.84
17785;BME280;9016;53.582;10.062;2023-06-14T01:15:39;101795.97;;;17.16;64.95
17785;BME280;9016;53.582;10.062;2023-06-14T01:18:08;101796.94;;;17.15;64.92
17785;BME280;9016;53.582;10.062;2023-06-14T01:20:44;101799.97;;;16.98;65.61
17785;BME280;9016;53.582;10.062;2023-06-14T01:23:18;101804.16;;;17.02;65.40
17785;BME280;9016;53.582;10.062;2023-06-14T01:25:47;101801.06;;;17.08;65.63
17785;BME280;9016;53.582;10.062;2023-06-14T01:28:21;101798.03;;;17.12;65.08
17785;BME280;9016;53.582;10.062;2023-06-14T01:30:51;101805.81;;;17.04;65.78
17785;BME280;9016;53.582;10.062;2023-06-14T01:33:21;101795.09;;;17.03;65.77
17785;BME280;9016;53.582;10.062;2023-06-14T01:35:50;101797.03;;;17.01;65.96
17785;BME280;9016;53.582;10.062;2023-06-14T01:38:23;101797.38;;;16.96;66.34
17785;BME280;9016;53.582;10.062;2023-06-14T01:40:54;101797.03;;;16.88;66.03
17785;BME280;9016;53.582;10.062;2023-06-14T01:43:23;101799.19;;;16.83;66.96
17785;BME280;9016;53.582;10.062;2023-06-14T01:45:53;101798.03;;;16.87;66.62
17785;BME280;9016;53.582;10.062;2023-06-14T01:48:23;101793.94;;;16.94;66.09
17785;BME280;9016;53.582;10.062;2023-06-14T01:50:52;101798.84;;;16.75;67.14
17785;BME280;9016;53.582;10.062;2023-06-14T01:53:22;101794.34;;;16.75;67.13
17785;BME280;9016;53.582;10.062;2023-06-14T01:55:50;101797.28;;;16.85;66.91
17785;BME280;9016;53.582;10.062;2023-06-14T01:58:20;101802.13;;;16.80;66.90
17785;BME280;9016;53.582;10.062;2023-06-14T02:00:49;101802.00;;;16.81;66.91
17785;BME280;9016;53.582;10.062;2023-06-14T02:03:17;101807.59;;;16.78;67.25
17785;BME280;9016;53.582;10.062;2023-06-14T02:05:46;101803.28;;;16.76;67.26
17785;BME280;9016;53.582;10.062;2023-06-14T02:08:14;101810.50;;;16.75;67.16
17785;BME280;9016;53.582;10.062;2023-06-14T02:10:43;101802.75;;;16.83;67.13
17785;BME280;9016;53.582;10.062;2023-06-14T02:13:11;101806.53;;;16.81;67.22
17785;BME280;9016;53.582;10.062;2023-06-14T02:15:39;101806.75;;;16.78;67.23
17785;BME280;9016;53.582;10.062;2023-06-14T02:18:12;101806.94;;;16.75;67.46
17785;BME280;9016;53.582;10.062;2023-06-14T02:20:40;101812.44;;;16.73;67.72
17785;BME280;9016;53.582;10.062;2023-06-14T02:23:08;101806.50;;;16.68;68.02
17785;BME280;9016;53.582;10.062;2023-06-14T02:25:36;101807.78;;;16.63;68.54
17785;BME280;9016;53.582;10.062;2023-06-14T02:28:07;101804.75;;;16.67;68.38
17785;BME280;9016;53.582;10.062;2023-06-14T02:30:35;101807.56;;;16.66;68.36
17785;BME280;9016;53.582;10.062;2023-06-14T02:33:03;101805.53;;;16.69;68.06
17785;BME280;9016;53.582;10.062;2023-06-14T02:35:31;101804.88;;;16.66;68.59
17785;BME280;9016;53.582;10.062;2023-06-14T02:37:59;101818.34;;;16.66;68.66
17785;BME280;9016;53.582;10.062;2023-06-14T02:40:27;101813.41;;;16.60;68.66
17785;BME280;9016;53.582;10.062;2023-06-14T02:42:55;101814.22;;;16.60;68.58
17785;BME280;9016;53.582;10.062;2023-06-14T02:45:24;101817.91;;;16.59;69.07
17785;BME280;9016;53.582;10.062;2023-06-14T02:47:52;101807.78;;;16.63;69.08
17785;BME280;9016;53.582;10.062;2023-06-14T02:50:22;101809.72;;;16.61;69.05
17785;BME280;9016;53.582;10.062;2023-06-14T02:52:52;101821.53;;;16.58;69.33
17785;BME280;9016;53.582;10.062;2023-06-14T02:55:22;101828.13;;;16.54;69.65
17785;BME280;9016;53.582;10.062;2023-06-14T02:57:54;101822.13;;;16.63;69.17
17785;BME280;9016;53.582;10.062;2023-06-14T03:00:24;101825.97;;;16.59;69.06
17785;BME280;9016;53.582;10.062;2023-06-14T03:02:52;101823.19;;;16.61;69.23
17785;BME280;9016;53.582;10.062;2023-06-14T03:05:21;101822.56;;;16.43;70.62
17785;BME280;9016;53.582;10.062;2023-06-14T03:07:50;101828.84;;;16.56;70.13
17785;BME280;9016;53.582;10.062;2023-06-14T03:10:20;101825.50;;;16.53;69.67
17785;BME280;9016;53.582;10.062;2023-06-14T03:12:48;101832.00;;;16.50;69.98
17785;BME280;9016;53.582;10.062;2023-06-14T03:15:18;101835.81;;;16.46;70.79
17785;BME280;9016;53.582;10.062;2023-06-14T03:17:47;101842.56;;;16.39;70.89
17785;BME280;9016;53.582;10.062;2023-06-14T03:20:16;101837.38;;;16.50;70.64
17785;BME280;9016;53.582;10.062;2023-06-14T03:22:44;101839.78;;;16.41;71.04
17785;BME280;9016;53.582;10.062;2023-06-14T03:25:14;101835.56;;;16.37;71.36
17785;BME280;9016;53.582;10.062;2023-06-14T03:27:45;101836.97;;;16.42;71.11
17785;BME280;9016;53.582;10.062;2023-06-14T03:30:14;101841.31;;;16.45;70.92
17785;BME280;9016;53.582;10.062;2023-06-14T03:32:42;101841.81;;;16.37;71.88
17785;BME280;9016;53.582;10.062;2023-06-14T03:35:11;101834.63;;;16.38;71.57
17785;BME280;9016;53.582;10.062;2023-06-14T03:37:44;101834.69;;;16.50;71.28
17785;BME280;9016;53.582;10.062;2023-06-14T03:40:12;101848.31;;;16.47;71.61
17785;BME280;9016;53.582;10.062;2023-06-14T03:42:41;101850.94;;;16.49;71.71
17785;BME280;9016;53.582;10.062;2023-06-14T03:45:11;101843.84;;;16.60;71.06
17785;BME280;9016;53.582;10.062;2023-06-14T03:47:39;101853.00;;;16.58;71.63
17785;BME280;9016;53.582;10.062;2023-06-14T03:50:08;101853.00;;;16.58;71.57
17785;BME280;9016;53.582;10.062;2023-06-14T03:52:38;101860.56;;;16.65;71.60
17785;BME280;9016;53.582;10.062;2023-06-14T03:55:09;101854.09;;;16.68;71.26
17785;BME280;9016;53.582;10.062;2023-06-14T03:57:42;101854.19;;;16.66;71.76
17785;BME280;9016;53.582;10.062;2023-06-14T04:00:11;101867.13;;;16.74;71.21
17785;BME280;9016;53.582;10.062;2023-06-14T04:02:39;101871.03;;;16.82;71.18
17785;BME280;9016;53.582;10.062;2023-06-14T04:05:08;101874.47;;;16.84;71.22
17785;BME280;9016;53.582;10.062;2023-06-14T04:07:36;101877.50;;;16.93;70.79
17785;BME280;9016;53.582;10.062;2023-06-14T04:10:08;101880.53;;;17.01;70.91
17785;BME280;9016;53.582;10.062;2023-06-14T04:12:37;101888.59;;;17.01;70.90
17785;BME280;9016;53.582;10.062;2023-06-14T04:15:09;101884.09;;;17.01;71.22
17785;BME280;9016;53.582;10.062;2023-06-14T04:17:41;101884.31;;;16.98;70.96
17785;BME280;9016;53.582;10.062;2023-06-14T04:20:10;101901.13;;;17.02;71.24
17785;BME280;9016;53.582;10.062;2023-06-14T04:22:38;101893.38;;;17.10;71.14
17785;BME280;9016;53.582;10.062;2023-06-14T04:25:09;101896.84;;;17.24;70.50
17785;BME280;9016;53.582;10.062;2023-06-14T04:27:39;101898.44;;;17.27;69.72
17785;BME280;9016;53.582;10.062;2023-06-14T04:30:09;101905.03;;;17.35;69.81
17785;BME280;9016;53.582;10.062;2023-06-14T04:32:37;101895.66;;;17.41;69.56
17785;BME280;9016;53.582;10.062;2023-06-14T04:35:07;101895.03;;;17.50;69.38
17785;BME280;9016;53.582;10.062;2023-06-14T04:37:37;101889.94;;;17.45;69.64
17785;BME280;9016;53.582;10.062;2023-06-14T04:40:11;101896.19;;;17.46;69.82
17785;BME280;9016;53.582;10.062;2023-06-14T04:42:39;101898.81;;;17.47;69.83
17785;BME280;9016;53.582;10.062;2023-06-14T04:45:11;101902.47;;;17.59;69.14
17785;BME280;9016;53.582;10.062;2023-06-14T04:47:41;101900.56;;;17.48;69.44
17785;BME280;9016;53.582;10.062;2023-06-14T04:50:10;101900.72;;;17.58;69.01
17785;BME280;9016;53.582;10.062;2023-06-14T04:52:39;101892.09;;;17.65;69.17
17785;BME280;9016;53.582;10.062;2023-06-14T04:55:08;101897.94;;;17.72;68.43
17785;BME280;9016;53.582;10.062;2023-06-14T04:57:38;101897.81;;;17.86;68.13
17785;BME280;9016;53.582;10.062;2023-06-14T05:00:08;101895.53;;;17.80;68.37
17785;BME280;9016;53.582;10.062;2023-06-14T05:02:38;101900.72;;;17.83;67.84
17785;BME280;9016;53.582;10.062;2023-06-14T05:05:08;101904.19;;;17.85;67.70
17785;BME280;9016;53.582;10.062;2023-06-14T05:07:36;101903.06;;;18.00;67.21
17785;BME280;9016;53.582;10.062;2023-06-14T05:10:08;101891.06;;;18.04;66.31
17785;BME280;9016;53.582;10.062;2023-06-14T05:12:38;101890.75;;;18.09;65.98
17785;BME280;9016;53.582;10.062;2023-06-14T05:15:09;101891.13;;;18.15;65.09
17785;BME280;9016;53.582;10.062;2023-06-14T05:17:37;101891.56;;;18.22;64.98
17785;BME280;9016;53.582;10.062;2023-06-14T05:20:10;101890.66;;;18.34;64.12
17785;BME280;9016;53.582;10.062;2023-06-14T05:22:39;101894.81;;;18.50;63.94
17785;BME280;9016;53.582;10.062;2023-06-14T05:25:10;101894.38;;;18.56;63.80
17785;BME280;9016;53.582;10.062;2023-06-14T05:27:39;101904.75;;;18.73;62.54
17785;BME280;9016;53.582;10.062;2023-06-14T05:30:11;101906.97;;;18.79;62.12
17785;BME280;9016;53.582;10.062;2023-06-14T05:32:39;101902.56;;;18.78;61.19
17785;BME280;9016;53.582;10.062;2023-06-14T05:35:08;101910.22;;;18.85;61.10
17785;BME280;9016;53.582;10.062;2023-06-14T05:37:37;101900.19;;;18.98;60.48
17785;BME280;9016;53.582;10.062;2023-06-14T05:40:06;101895.53;;;19.00;60.49
17785;BME280;9016;53.582;10.062;2023-06-14T05:42:35;101906.09;;;19.03;60.45
17785;BME280;9016;53.582;10.062;2023-06-14T05:45:06;101900.22;;;19.09;60.03
17785;BME280;9016;53.582;10.062;2023-06-14T05:47:34;101909.16;;;19.09;60.29
17785;BME280;9016;53.582;10.062;2023-06-14T05:50:03;101908.50;;;19.29;59.08
17785;BME280;9016;53.582;10.062;2023-06-14T05:52:31;101913.69;;;19.32;58.98
17785;BME280;9016;53.582;10.062;2023-06-14T05:54:59;101922.31;;;19.37;58.99
17785;BME280;9016;53.582;10.062;2023-06-14T05:57:27;101920.22;;;19.52;59.27
17785;BME280;9016;53.582;10.062;2023-06-14T05:59:55;101920.13;;;19.64;59.11
17785;BME280;9016;53.582;10.062;2023-06-14T06:02:24;101919.03;;;19.67;58.22
17785;BME280;9016;53.582;10.062;2023-06-14T06:04:52;101927.41;;;19.75;58.44
17785;BME280;9016;53.582;10.062;2023-06-14T06:07:20;101929.84;;;19.89;57.62
17785;BME280;9016;53.582;10.062;2023-06-14T06:09:48;101926.41;;;19.98;55.35
17785;BME280;9016;53.582;10.062;2023-06-14T06:12:17;101933.78;;;19.96;54.88
17785;BME280;9016;53.582;10.062;2023-06-14T06:14:46;101931.69;;;20.11;55.07
17785;BME280;9016;53.582;10.062;2023-06-14T06:17:14;101932.81;;;20.30;53.88
17785;BME280;9016;53.582;10.062;2023-06-14T06:19:43;101932.56;;;20.33;53.40
17785;BME280;9016;53.582;10.062;2023-06-14T06:22:12;101930.78;;;21.18;51.56
17785;BME280;9016;53.582;10.062;2023-06-14T06:24:40;101918.91;;;23.08;47.02
17785;BME280;9016;53.582;10.062;2023-06-14T06:27:11;101924.09;;;24.67;42.88
17785;BME280;9016;53.582;10.062;2023-06-14T06:29:41;101916.66;;;25.99;39.91
17785;BME280;9016;53.582;10.062;2023-06-14T06:32:10;101917.13;;;27.10;38.51
17785;BME280;9016;53.582;10.062;2023-06-14T06:34:38;101926.00;;;27.76;35.95
17785;BME280;9016;53.582;10.062;2023-06-14T06:37:08;101931.50;;;28.31;34.66
17785;BME280;9016;53.582;10.062;2023-06-14T06:39:36;101926.34;;;28.67;33.81
17785;BME280;9016;53.582;10.062;2023-06-14T06:42:04;101932.41;;;28.85;33.05
17785;BME280;9016;53.582;10.062;2023-06-14T06:44:33;101928.75;;;29.75;31.58
17785;BME280;9016;53.582;10.062;2023-06-14T06:47:01;101929.22;;;28.73;32.28
17785;BME280;9016;53.582;10.062;2023-06-14T06:49:29;101929.00;;;29.28;31.20
17785;BME280;9016;53.582;10.062;2023-06-14T06:52:01;101945.25;;;29.89;29.95
17785;BME280;9016;53.582;10.062;2023-06-14T06:54:31;101936.81;;;29.54;30.15
17785;BME280;9016;53.582;10.062;2023-06-14T06:56:59;101941.53;;;29.82;31.03
17785;BME280;9016;53.582;10.062;2023-06-14T06:59:28;101940.94;;;30.81;29.57
17785;BME280;9016;53.582;10.062;2023-06-14T07:01:57;101948.47;;;30.87;28.98
17785;BME280;9016;53.582;10.062;2023-06-14T07:04:25;101948.78;;;31.19;28.22
17785;BME280;9016;53.582;10.062;2023-06-14T07:06:53;101942.91;;;31.01;28.45
17785;BME280;9016;53.582;10.062;2023-06-14T07:09:21;101953.34;;;31.48;27.23
17785;BME280;9016;53.582;10.062;2023-06-14T07:11:50;101951.59;;;31.68;26.76
17785;BME280;9016;53.582;10.062;2023-06-14T07:14:18;101949.28;;;31.72;26.91
17785;BME280;9016;53.582;10.062;2023-06-14T07:16:49;101953.44;;;31.61;26.33
17785;BME280;9016;53.582;10.062;2023-06-14T07:19:18;101956.47;;;32.35;25.89
17785;BME280;9016;53.582;10.062;2023-06-14T07:21:47;101959.00;;;32.30;25.76
17785;BME280;9016;53.582;10.062;2023-06-14T07:24:15;101954.75;;;32.34;25.04
17785;BME280;9016;53.582;10.062;2023-06-14T07:26:43;101955.41;;;32.83;25.10
17785;BME280;9016;53.582;10.062;2023-06-14T07:29:13;101954.47;;;33.36;24.40
17785;BME280;9016;53.582;10.062;2023-06-14T07:31:41;101957.84;;;33.25;24.43
17785;BME280;9016;53.582;10.062;2023-06-14T07:34:09;101951.81;;;32.89;24.64
17785;BME280;9016;53.582;10.062;2023-06-14T07:36:37;101953.78;;;33.08;24.60
17785;BME280;9016;53.582;10.062;2023-06-14T07:39:05;101948.72;;;33.70;24.17
17785;BME280;9016;53.582;10.062;2023-06-14T07:41:33;101950.63;;;34.03;23.68
17785;BME280;9016;53.582;10.062;2023-06-14T07:44:01;101955.31;;;33.37;24.52
17785;BME280;9016;53.582;10.062;2023-06-14T07:46:31;101952.13;;;33.20;24.41
17785;BME280;9016;53.582;10.062;2023-06-14T07:49:01;101956.16;;;33.76;24.09
17785;BME280;9016;53.582;10.062;2023-06-14T07:51:29;101948.75;;;33.51;23.67
17785;BME280;9016;53.582;10.062;2023-06-14T07:53:59;101945.94;;;34.03;23.26
17785;BME280;9016;53.582;10.062;2023-06-14T07:56:27;101948.78;;;34.91;22.73
17785;BME280;9016;53.582;10.062;2023-06-14T07:58:55;101952.81;;;34.89;22.73
17785;BME280;9016;53.582;10.062;2023-06-14T08:01:23;101956.34;;;34.08;22.89
17785;BME280;9016;53.582;10.062;2023-06-14T08:03:53;101946.59;;;33.59;23.90
17785;BME280;9016;53.582;10.062;2023-06-14T08:06:21;101950.91;;;34.52;22.72
17785;BME280;9016;53.582;10.062;2023-06-14T08:08:49;101952.19;;;34.49;22.88
17785;BME280;9016;53.582;10.062;2023-06-14T08:11:18;101944.91;;;33.65;23.84
17785;BME280;9016;53.582;10.062;2023-06-14T08:13:45;101946.47;;;34.31;23.37
17785;BME280;9016;53.582;10.062;2023-06-14T08:16:13;101942.84;;;34.81;22.25
17785;BME280;9016;53.582;10.062;2023-06-14T08:18:41;101941.75;;;34.51;22.41
17785;BME280;9016;53.582;10.062;2023-06-14T08:21:11;101941.59;;;34.77;22.26
17785;BME280;9016;53.582;10.062;2023-06-14T08:23:40;101939.28;;;35.37;21.90
17785;BME280;9016;53.582;10.062;2023-06-14T08:26:09;101937.75;;;35.90;21.46
17785;BME280;9016;53.582;10.062;2023-06-14T08:28:37;101940.00;;;35.75;21.36
17785;BME280;9016;53.582;10.062;2023-06-14T08:31:05;101946.47;;;36.66;20.57
17785;BME280;9016;53.582;10.062;2023-06-14T08:33:33;101939.63;;;35.71;21.03
17785;BME280;9016;53.582;10.062;2023-06-14T08:36:01;101945.09;;;35.60;21.14
17785;BME280;9016;53.582;10.062;2023-06-14T08:38:31;101945.50;;;34.06;22.80
17785;BME280;9016;53.582;10.062;2023-06-14T08:41:00;101944.81;;;35.12;22.17
17785;BME280;9016;53.582;10.062;2023-06-14T08:43:29;101942.91;;;34.68;22.76
17785;BME280;9016;53.582;10.062;2023-06-14T08:45:58;101938.69;;;34.66;22.83
17785;BME280;9016;53.582;10.062;2023-06-14T08:48:27;101937.09;;;35.88;21.50
17785;BME280;9016;53.582;10.062;2023-06-14T08:50:56;101935.53;;;36.35;21.38
17785;BME280;9016;53.582;10.062;2023-06-14T08:53:31;101941.53;;;35.22;22.17
17785;BME280;9016;53.582;10.062;2023-06-14T08:56:05;101943.63;;;33.67;23.59
17785;BME280;9016;53.582;10.062;2023-06-14T08:58:34;101950.13;;;34.25;23.19
17785;BME280;9016;53.582;10.062;2023-06-14T09:01:02;101947.28;;;35.27;22.02
17785;BME280;9016;53.582;10.062;2023-06-14T09:03:30;101947.88;;;35.60;21.77
17785;BME280;9016;53.582;10.062;2023-06-14T09:06:00;101946.97;;;35.35;21.99
17785;BME280;9016;53.582;10.062;2023-06-14T09:08:28;101946.81;;;35.79;21.89
17785;BME280;9016;53.582;10.062;2023-06-14T09:10:58;101956.38;;;34.01;22.65
17785;BME280;9016;53.582;10.062;2023-06-14T09:13:30;101948.28;;;33.41;23.49
17785;BME280;9016;53.582;10.062;2023-06-14T09:16:03;101955.50;;;32.49;24.39
17785;BME280;9016;53.582;10.062;2023-06-14T09:18:36;101950.44;;;33.39;23.91
17785;BME280;9016;53.582;10.062;2023-06-14T09:21:06;101943.63;;;33.67;22.88
17785;BME280;9016;53.582;10.062;2023-06-14T09:23:36;101940.97;;;34.25;22.98
17785;BME280;9016;53.582;10.062;2023-06-14T09:26:10;101939.53;;;34.66;22.13
17785;BME280;9016;53.582;10.062;2023-06-14T09:28:41;101945.16;;;34.47;22.45
17785;BME280;9016;53.582;10.062;2023-06-14T09:31:10;101949.91;;;34.27;22.54
17785;BME280;9016;53.582;10.062;2023-06-14T09:33:41;101943.00;;;33.52;23.28
17785;BME280;9016;53.582;10.062;2023-06-14T09:36:15;101947.91;;;32.64;24.52
17785;BME280;9016;53.582;10.062;2023-06-14T09:38:52;101945.38;;;32.69;24.87
17785;BME280;9016;53.582;10.062;2023-06-14T09:41:30;101943.16;;;33.12;24.43
17785;BME280;9016;53.582;10.062;2023-06-14T09:43:59;101939.69;;;32.30;25.51
17785;BME280;9016;53.582;10.062;2023-06-14T09:46:34;101939.19;;;32.20;25.38
17785;BME280;9016;53.582;10.062;2023-06-14T09:49:03;101940.00;;;32.07;25.34
17785;BME280;9016;53.582;10.062;2023-06-14T09:51:32;101942.59;;;32.15;25.36
17785;BME280;9016;53.582;10.062;2023-06-14T09:54:02;101942.25;;;30.64;27.20
17785;BME280;9016;53.582;10.062;2023-06-14T09:56:35;101934.31;;;30.10;27.80
17785;BME280;9016;53.582;10.062;2023-06-14T09:59:05;101925.81;;;29.91;28.46
17785;BME280;9016;53.582;10.062;2023-06-14T10:01:35;101938.47;;;29.77;28.72
17785;BME280;9016;53.582;10.062;2023-06-14T10:04:09;101941.91;;;28.74;30.24
17785;BME280;9016;53.582;10.062;2023-06-14T10:06:41;101926.19;;;29.36;29.47
17785;BME280;9016;53.582;10.062;2023-06-14T10:09:11;101936.72;;;29.84;28.34
17785;BME280;9016;53.582;10.062;2023-06-14T10:11:40;101932.25;;;29.83;27.73
17785;BME280;9016;53.582;10.062;2023-06-14T10:14:12;101924.84;;;29.69;28.22
17785;BME280;9016;53.582;10.062;2023-06-14T10:16:45;101935.59;;;29.19;29.27
17785;BME280;9016;53.582;10.062;2023-06-14T10:19:18;101929.50;;;29.46;29.39
17785;BME280;9016;53.582;10.062;2023-06-14T10:21:55;101924.94;;;29.90;29.22
17785;BME280;9016;53.582;10.062;2023-06-14T10:24:29;101928.94;;;30.02;28.84
17785;BME280;9016;53.582;10.062;2023-06-14T10:26:59;101922.97;;;30.13;28.18
17785;BME280;9016;53.582;10.062;2023-06-14T10:29:28;101927.19;;;30.60;28.07
17785;BME280;9016;53.582;10.062;2023-06-14T10:32:00;101919.53;;;30.41;28.02
17785;BME280;9016;53.582;10.062;2023-06-14T10:34:31;101925.38;;;29.27;29.45
17785;BME280;9016;53.582;10.062;2023-06-14T10:37:08;101925.06;;;29.82;28.96
17785;BME280;9016;53.582;10.062;2023-06-14T10:39:42;101912.31;;;30.25;28.49
17785;BME280;9016;53.582;10.062;2023-06-14T10:42:14;101911.59;;;29.36;29.41
17785;BME280;9016;53.582;10.062;2023-06-14T10:44:46;101902.59;;;29.79;29.40
17785;BME280;9016;53.582;10.062;2023-06-14T10:47:24;101914.50;;;30.30;28.35
17785;BME280;9016;53.582;10.062;2023-06-14T10:49:54;101912.34;;;30.40;28.60
17785;BME280;9016;53.582;10.062;2023-06-14T10:52:25;101908.06;;;29.27;29.26
17785;BME280;9016;53.582;10.062;2023-06-14T10:55:16;101910.34;;;28.09;30.98
17785;BME280;9016;53.582;10.062;2023-06-14T10:57:48;101915.19;;;27.91;31.33
17785;BME280;9016;53.582;10.062;2023-06-14T11:00:20;101911.41;;;27.92;31.69
17785;BME280;9016;53.582;10.062;2023-06-14T11:03:36;101910.81;;;27.58;31.66
17785;BME280;9016;53.582;10.062;2023-06-14T11:06:14;101907.63;;;28.01;31.46
17785;BME280;9016;53.582;10.062;2023-06-14T11:11:59;101892.06;;;29.08;29.59
17785;BME280;9016;53.582;10.062;2023-06-14T11:14:31;101876.81;;;29.05;30.05
17785;BME280;9016;53.582;10.062;2023-06-14T11:16:59;101895.09;;;28.37;30.63
17785;BME280;9016;53.582;10.062;2023-06-14T11:19:27;101900.31;;;27.77;31.70
17785;BME280;9016;53.582;10.062;2023-06-14T11:21:56;101889.78;;;27.50;31.99
17785;BME280;9016;53.582;10.062;2023-06-14T11:24:24;101890.63;;;27.02;31.79
17785;BME280;9016;53.582;10.062;2023-06-14T11:26:55;101879.50;;;27.20;31.87
17785;BME280;9016;53.582;10.062;2023-06-14T11:29:24;101883.63;;;27.32;31.38
17785;BME280;9016;53.582;10.062;2023-06-14T11:31:54;101880.56;;;27.11;32.30
17785;BME280;9016;53.582;10.062;2023-06-14T11:34:22;101882.00;;;27.78;31.79
17785;BME280;9016;53.582;10.062;2023-06-14T11:36:50;101870.28;;;27.92;32.07
17785;BME280;9016;53.582;10.062;2023-06-14T11:39:24;101871.16;;;27.92;31.85
17785;BME280;9016;53.582;10.062;2023-06-14T11:41:52;101868.41;;;28.00;31.83
17785;BME280;9016;53.582;10.062;2023-06-14T11:44:21;101870.75;;;27.57;32.00
17785;BME280;9016;53.582;10.062;2023-06-14T11:46:50;101877.06;;;27.65;32.01
17785;BME280;9016;53.582;10.062;2023-06-14T11:49:20;101870.44;;;27.98;31.63
17785;BME280;9016;53.582;10.062;2023-06-14T11:51:48;101869.34;;;28.15;31.05
17785;BME280;9016;53.582;10.062;2023-06-14T11:54:16;101864.56;;;28.09;31.18
17785;BME280;9016;53.582;10.062;2023-06-14T11:56:45;101862.19;;;28.14;31.61
17785;BME280;9016;53.582;10.062;2023-06-14T11:59:13;101868.75;;;27.97;31.60
17785;BME280;9016;53.582;10.062;2023-06-14T12:01:43;101861.94;;;27.85;31.77
17785;BME280;9016;53.582;10.062;2023-06-14T12:04:12;101860.72;;;27.88;31.27
17785;BME280;9016;53.582;10.062;2023-06-14T12:06:41;101855.91;;;28.28;31.54
17785;BME280;9016;53.582;10.062;2023-06-14T12:09:10;101859.81;;;28.34;31.35
17785;BME280;9016;53.582;10.062;2023-06-14T12:11:43;101853.56;;;27.71;31.76
17785;BME280;9016;53.582;10.062;2023-06-14T12:14:11;101845.91;;;27.66;32.28
17785;BME280;9016;53.582;10.062;2023-06-14T12:16:41;101852.06;;;27.60;32.19
17785;BME280;9016;53.582;10.062;2023-06-14T12:19:11;101846.13;;;27.49;32.00
17785;BME280;9016;53.582;10.062;2023-06-14T12:21:42;101843.41;;;27.08;31.92
17785;BME280;9016;53.582;10.062;2023-06-14T12:24:12;101851.59;;;27.24;32.72
17785;BME280;9016;53.582;10.062;2023-06-14T12:26:41;101848.03;;;27.08;32.86
17785;BME280;9016;53.582;10.062;2023-06-14T12:29:09;101842.41;;;27.09;33.02
17785;BME280;9016;53.582;10.062;2023-06-14T12:31:40;101844.63;;;27.14;32.97
17785;BME280;9016;53.582;10.062;2023-06-14T12:34:09;101842.22;;;27.11;33.08
17785;BME280;9016;53.582;10.062;2023-06-14T12:36:38;101835.72;;;27.28;32.73
17785;BME280;9016;53.582;10.062;2023-06-14T12:39:12;101841.19;;;27.28;31.98
17785;BME280;9016;53.582;10.062;2023-06-14T12:41:40;101836.56;;;27.36;32.16
17785;BME280;9016;53.582;10.062;2023-06-14T12:44:10;101846.66;;;27.28;31.95
17785;BME280;9016;53.582;10.062;2023-06-14T12:46:38;101839.66;;;27.33;32.35
17785;BME280;9016;53.582;10.062;2023-06-14T12:49:08;101846.66;;;27.44;32.31
17785;BME280;9016;53.582;10.062;2023-06-14T12:51:37;101842.06;;;27.36;32.52
17785;BME280;9016;53.582;10.062;2023-06-14T12:54:06;101840.69;;;27.08;32.74
17785;BME280;9016;53.582;10.062;2023-06-14T12:56:36;101840.88;;;27.07;32.90
17785;BME280;9016;53.582;10.062;2023-06-14T12:59:04;101836.44;;;26.98;32.91
17785;BME280;9016;53.582;10.062;2023-06-14T13:01:33;101837.41;;;27.21;32.44
17785;BME280;9016;53.582;10.062;2023-06-14T13:04:01;101832.47;;;27.32;32.25
17785;BME280;9016;53.582;10.062;2023-06-14T13:06:29;101832.66;;;27.39;32.11